createdAt,value
2023-03-06T00:02:09.928Z,14.50
2023-03-06T00:04:37.832Z,15.70
2023-03-06T00:07:05.890Z,15.90
2023-03-06T00:09:33.910Z,14.70
2023-03-06T00:12:01.797Z,16.90
2023-03-06T00:14:29.656Z,13.80
2023-03-06T00:16:57.640Z,11.50
2023-03-06T00:19:25.677Z,11.10
2023-03-06T00:21:54.711Z,11.30
2023-03-06T00:24:22.710Z,12.60
2023-03-06T00:26:50.940Z,11.00
2023-03-06T00:29:18.887Z,11.00
2023-03-06T00:31:48.043Z,10.10
2023-03-06T00:34:16.069Z,10.50
2023-03-06T00:36:43.923Z,11.00
2023-03-06T00:39:11.897Z,12.80
2023-03-06T00:41:39.854Z,10.80
2023-03-06T00:44:07.744Z,11.80
2023-03-06T00:46:35.659Z,10.10
2023-03-06T00:49:03.791Z,11.70
2023-03-06T00:51:31.828Z,11.00
2023-03-06T00:53:59.711Z,10.00
2023-03-06T00:56:27.535Z,10.50
2023-03-06T00:58:55.356Z,11.90
2023-03-06T01:01:23.464Z,10.20
2023-03-06T01:03:51.538Z,11.60
2023-03-06T01:06:19.509Z,11.10
2023-03-06T01:08:47.446Z,11.40
2023-03-06T01:11:15.494Z,13.20
2023-03-06T01:13:44.252Z,11.50
2023-03-06T01:16:15.056Z,9.60
2023-03-06T01:18:43.163Z,11.00
2023-03-06T01:21:11.097Z,11.00
2023-03-06T01:23:39.362Z,10.30
2023-03-06T01:26:07.833Z,11.80
2023-03-06T01:28:37.550Z,13.60
2023-03-06T01:31:07.097Z,11.40
2023-03-06T01:33:36.130Z,10.30
2023-03-06T01:36:08.583Z,11.10
2023-03-06T01:38:36.907Z,10.20
2023-03-06T01:41:05.676Z,9.70
2023-03-06T01:43:36.050Z,11.00
2023-03-06T01:46:27.752Z,10.20
2023-03-06T01:49:07.836Z,10.60
2023-03-06T01:51:39.761Z,10.20
2023-03-06T01:54:13.289Z,10.70
2023-03-06T01:56:46.528Z,9.40
2023-03-06T01:59:14.811Z,10.90
2023-03-06T02:01:44.247Z,11.70
2023-03-06T02:04:13.027Z,11.10
2023-03-06T02:06:43.337Z,9.40
2023-03-06T02:09:12.670Z,10.40
2023-03-06T02:11:44.165Z,10.30
2023-03-06T02:14:15.877Z,11.10
2023-03-06T02:16:44.112Z,10.00
2023-03-06T02:19:40.353Z,8.80
2023-03-06T02:22:08.407Z,9.30
2023-03-06T02:24:48.455Z,14.30
2023-03-06T02:27:17.632Z,9.80
2023-03-06T02:29:45.766Z,9.60
2023-03-06T02:32:13.826Z,10.40
2023-03-06T02:34:44.510Z,9.60
2023-03-06T02:37:12.622Z,24.30
2023-03-06T02:39:46.487Z,9.10
2023-03-06T02:42:26.698Z,9.90
2023-03-06T02:44:56.129Z,9.60
2023-03-06T02:47:24.487Z,9.40
2023-03-06T02:49:52.429Z,10.30
2023-03-06T02:52:20.317Z,9.60
2023-03-06T02:54:48.209Z,10.40
2023-03-06T02:57:16.218Z,11.00
2023-03-06T02:59:44.190Z,11.50
2023-03-06T03:02:12.298Z,9.90
2023-03-06T03:04:40.274Z,11.20
2023-03-06T03:07:08.286Z,10.90
2023-03-06T03:09:37.317Z,11.20
2023-03-06T03:12:06.707Z,11.50
2023-03-06T03:14:34.634Z,10.80
2023-03-06T03:17:02.732Z,11.40
2023-03-06T03:19:30.643Z,13.40
2023-03-06T03:21:59.060Z,13.20
2023-03-06T03:24:27.118Z,12.70
2023-03-06T03:26:55.118Z,13.70
2023-03-06T03:29:23.265Z,16.30
2023-03-06T03:31:51.230Z,16.40
2023-03-06T03:34:19.146Z,16.10
2023-03-06T03:36:47.015Z,16.50
2023-03-06T03:39:15.153Z,14.30
2023-03-06T03:41:43.184Z,15.30
2023-03-06T03:44:11.188Z,18.30
2023-03-06T03:46:39.485Z,20.70
2023-03-06T03:49:07.442Z,19.50
2023-03-06T03:51:36.343Z,20.10
2023-03-06T03:54:06.139Z,22.20
2023-03-06T03:56:34.371Z,19.30
2023-03-06T03:59:02.982Z,19.40
2023-03-06T04:01:31.057Z,18.00
2023-03-06T04:03:58.939Z,16.60
2023-03-06T04:06:27.304Z,13.50
2023-03-06T04:08:56.234Z,14.90
2023-03-06T04:11:24.287Z,15.40
2023-03-06T04:13:52.361Z,14.40
2023-03-06T04:16:20.380Z,15.90
2023-03-06T04:18:48.262Z,17.30
2023-03-06T04:21:16.178Z,14.60
2023-03-06T04:23:44.116Z,14.60
2023-03-06T04:26:12.102Z,16.80
2023-03-06T04:28:40.057Z,15.70
2023-03-06T04:31:13.192Z,12.10
2023-03-06T04:33:41.234Z,13.80
2023-03-06T04:36:28.248Z,15.10
2023-03-06T04:39:13.347Z,18.80
2023-03-06T04:41:42.447Z,15.30
2023-03-06T04:44:10.673Z,17.10
2023-03-06T04:46:38.721Z,14.80
2023-03-06T04:49:06.722Z,15.40
2023-03-06T04:51:36.906Z,13.80
2023-03-06T04:54:05.435Z,17.80
2023-03-06T04:56:34.614Z,15.70
2023-03-06T04:59:04.310Z,16.10
2023-03-06T05:01:33.484Z,20.20
2023-03-06T05:04:01.417Z,17.30
2023-03-06T05:06:29.487Z,17.10
2023-03-06T05:08:57.638Z,18.40
2023-03-06T05:11:25.589Z,18.20
2023-03-06T05:13:53.498Z,15.50
2023-03-06T05:16:21.538Z,19.00
2023-03-06T05:18:50.674Z,14.60
2023-03-06T05:21:18.622Z,16.70
2023-03-06T05:23:47.589Z,17.20
2023-03-06T05:26:15.899Z,20.80
2023-03-06T05:28:43.864Z,20.10
2023-03-06T05:31:11.944Z,22.80
2023-03-06T05:33:40.022Z,18.90
2023-03-06T05:36:09.630Z,23.60
2023-03-06T05:38:37.601Z,20.20
2023-03-06T05:41:05.542Z,24.90
2023-03-06T05:43:33.546Z,21.40
2023-03-06T05:46:04.051Z,24.40
2023-03-06T05:48:32.859Z,19.50
2023-03-06T05:51:01.914Z,26.20
2023-03-06T05:53:30.484Z,21.20
2023-03-06T05:56:03.961Z,19.70
2023-03-06T05:58:33.243Z,24.00
2023-03-06T06:01:09.412Z,25.60
2023-03-06T06:03:37.769Z,22.70
2023-03-06T06:06:08.384Z,20.60
2023-03-06T06:08:37.758Z,22.00
2023-03-06T06:11:07.427Z,19.10
2023-03-06T06:13:35.689Z,20.90
2023-03-06T06:16:11.903Z,20.00
2023-03-06T06:18:41.234Z,19.40
2023-03-06T06:21:11.375Z,19.80
2023-03-06T06:23:39.364Z,22.10
2023-03-06T06:26:08.952Z,20.30
2023-03-06T06:28:37.051Z,26.20
2023-03-06T06:31:10.733Z,22.60
2023-03-06T06:33:39.804Z,22.60
2023-03-06T06:36:16.605Z,26.50
2023-03-06T06:38:44.657Z,21.40
2023-03-06T06:41:38.809Z,24.30
2023-03-06T06:44:01.261Z,22.60
2023-03-06T06:49:17.611Z,25.00
2023-03-06T06:51:45.870Z,27.70
2023-03-06T06:54:13.825Z,23.80
2023-03-06T06:56:41.723Z,22.60
2023-03-06T06:59:16.435Z,22.60
2023-03-06T07:01:45.401Z,20.00
2023-03-06T07:04:13.991Z,22.60
2023-03-06T07:06:42.888Z,20.00
2023-03-06T07:09:12.106Z,23.20
2023-03-06T07:11:40.774Z,20.20
2023-03-06T07:14:08.988Z,24.40
2023-03-06T07:16:37.014Z,19.00
2023-03-06T07:19:05.157Z,20.30
2023-03-06T07:21:33.215Z,17.60
2023-03-06T07:24:01.500Z,21.20
2023-03-06T07:26:32.701Z,17.50
2023-03-06T07:29:03.587Z,18.90
2023-03-06T07:31:32.097Z,17.90
2023-03-06T07:34:00.233Z,19.80
2023-03-06T07:36:28.923Z,22.00
2023-03-06T07:38:56.795Z,22.60
2023-03-06T07:41:24.702Z,19.80
2023-03-06T07:43:52.617Z,21.60
2023-03-06T07:46:20.536Z,24.70
2023-03-06T07:48:48.399Z,20.60
2023-03-06T07:51:20.178Z,19.80
2023-03-06T07:53:49.529Z,17.40
2023-03-06T07:56:17.752Z,17.10
2023-03-06T07:58:46.838Z,16.50
2023-03-06T08:01:17.979Z,17.40
2023-03-06T08:03:47.282Z,13.30
2023-03-06T08:06:18.798Z,14.70
2023-03-06T08:08:48.484Z,19.30
2023-03-06T08:11:18.823Z,16.40
2023-03-06T08:13:48.818Z,17.60
2023-03-06T08:16:17.675Z,15.20
2023-03-06T08:18:46.588Z,15.20
2023-03-06T08:21:17.485Z,16.90
2023-03-06T08:23:46.400Z,16.30
2023-03-06T08:26:20.006Z,15.50
2023-03-06T08:28:48.264Z,15.30
2023-03-06T08:31:34.928Z,16.00
2023-03-06T08:34:09.438Z,17.10
2023-03-06T08:36:37.495Z,14.20
2023-03-06T08:39:05.923Z,14.80
2023-03-06T08:41:35.195Z,14.90
2023-03-06T08:44:07.306Z,14.10
2023-03-06T08:46:36.392Z,16.90
2023-03-06T08:49:05.042Z,16.80
2023-03-06T08:51:33.290Z,13.90
2023-03-06T08:54:01.233Z,19.00
2023-03-06T08:56:31.507Z,17.00
2023-03-06T08:59:01.932Z,18.00
2023-03-06T09:01:32.353Z,15.20
2023-03-06T09:04:02.988Z,14.60
2023-03-06T09:06:33.871Z,15.70
2023-03-06T09:09:02.032Z,13.00
2023-03-06T09:11:30.260Z,13.80
2023-03-06T09:13:58.318Z,12.60
2023-03-06T09:16:26.738Z,14.60
2023-03-06T09:18:54.910Z,10.90
2023-03-06T09:21:23.137Z,16.60
2023-03-06T09:23:51.915Z,15.30
2023-03-06T09:26:19.883Z,14.70
2023-03-06T09:28:47.831Z,15.00
2023-03-06T09:31:20.560Z,12.90
2023-03-06T09:33:48.685Z,13.00
2023-03-06T09:36:19.408Z,11.60
2023-03-06T09:38:50.024Z,13.60
2023-03-06T09:41:31.570Z,15.10
2023-03-06T09:44:22.584Z,11.20
2023-03-06T09:47:03.462Z,13.50
2023-03-06T09:49:49.416Z,13.00
2023-03-06T09:52:28.888Z,11.20
2023-03-06T09:55:09.021Z,11.90
2023-03-06T09:57:42.442Z,12.30
2023-03-06T10:00:30.711Z,10.60
2023-03-06T10:03:18.106Z,14.40
2023-03-06T10:06:10.387Z,10.80
2023-03-06T10:09:03.341Z,14.00
2023-03-06T10:11:39.717Z,9.80
2023-03-06T10:14:18.644Z,10.60
2023-03-06T10:16:46.879Z,9.70
2023-03-06T10:19:18.193Z,11.00
2023-03-06T10:22:15.801Z,10.40
2023-03-06T10:25:08.644Z,9.70
2023-03-06T10:27:50.362Z,10.70
2023-03-06T10:30:48.899Z,9.90
2023-03-06T10:33:42.183Z,10.80
2023-03-06T10:36:18.578Z,10.90
2023-03-06T10:38:50.295Z,10.40
2023-03-06T10:41:25.842Z,9.30
2023-03-06T10:43:59.831Z,10.40
2023-03-06T10:46:37.408Z,9.80
2023-03-06T10:49:14.184Z,9.20
2023-03-06T10:51:56.820Z,9.20
2023-03-06T10:54:25.272Z,8.90
2023-03-06T10:56:53.192Z,7.50
2023-03-06T10:59:28.455Z,12.70
2023-03-06T11:01:58.908Z,10.50
2023-03-06T11:04:34.575Z,8.00
2023-03-06T11:07:15.405Z,8.40
2023-03-06T11:09:59.849Z,10.30
2023-03-06T11:12:38.461Z,10.80
2023-03-06T11:15:17.911Z,9.20
2023-03-06T11:17:55.955Z,9.50
2023-03-06T11:20:24.185Z,11.00
2023-03-06T11:22:59.635Z,9.60
2023-03-06T11:25:34.120Z,10.60
2023-03-06T11:28:16.020Z,11.50
2023-03-06T11:30:54.605Z,11.20
2023-03-06T11:33:31.166Z,9.40
2023-03-06T11:36:23.588Z,10.30
2023-03-06T11:38:54.125Z,12.50
2023-03-06T11:41:34.141Z,10.50
2023-03-06T11:44:14.351Z,9.10
2023-03-06T11:47:07.802Z,10.20
2023-03-06T11:49:43.653Z,10.80
2023-03-06T11:52:44.495Z,8.90
2023-03-06T11:55:17.281Z,11.30
2023-03-06T11:58:08.446Z,11.60
2023-03-06T12:01:05.507Z,11.00
2023-03-06T12:04:13.880Z,10.20
2023-03-06T12:07:27.701Z,13.20
2023-03-06T12:10:23.657Z,9.40
2023-03-06T12:13:11.340Z,9.80
2023-03-06T12:15:57.791Z,11.60
2023-03-06T12:18:42.832Z,10.10
2023-03-06T12:21:22.993Z,9.70
2023-03-06T12:24:05.255Z,17.90
2023-03-06T12:27:13.114Z,9.20
2023-03-06T12:29:57.885Z,11.20
2023-03-06T12:32:52.374Z,10.20
2023-03-06T12:38:00.106Z,10.30
2023-03-06T12:40:46.497Z,14.20
2023-03-06T12:43:23.569Z,11.40
2023-03-06T12:45:57.015Z,10.30
2023-03-06T12:48:29.574Z,10.90
2023-03-06T12:50:57.910Z,10.70
2023-03-06T12:53:30.315Z,13.10
2023-03-06T12:56:01.590Z,9.60
2023-03-06T12:58:29.609Z,11.10
2023-03-06T13:01:10.150Z,11.60
2023-03-06T13:04:15.113Z,8.70
2023-03-06T13:06:58.064Z,10.10
2023-03-06T13:09:44.751Z,9.70
2023-03-06T13:12:38.897Z,11.20
2023-03-06T13:15:42.880Z,10.20
2023-03-06T13:18:33.396Z,9.90
2023-03-06T13:21:01.711Z,11.20
2023-03-06T13:23:29.556Z,10.40
2023-03-06T13:26:16.964Z,9.80
2023-03-06T13:28:54.148Z,11.30
2023-03-06T13:31:33.165Z,9.10
2023-03-06T13:34:03.794Z,10.00
2023-03-06T13:36:33.126Z,14.60
2023-03-06T13:39:12.471Z,10.30
2023-03-06T13:41:54.599Z,11.70
2023-03-06T13:44:25.458Z,9.80
2023-03-06T13:47:25.069Z,9.60
2023-03-06T13:49:53.020Z,11.00
2023-03-06T13:52:35.954Z,10.70
2023-03-06T13:55:25.368Z,11.10
2023-03-06T13:58:18.427Z,10.60
2023-03-06T14:01:17.201Z,12.70
2023-03-06T14:04:30.803Z,11.80
2023-03-06T14:06:58.829Z,9.20
2023-03-06T14:09:35.750Z,11.00
2023-03-06T14:12:17.006Z,10.30
2023-03-06T14:14:51.056Z,9.70
2023-03-06T14:17:26.808Z,8.40
2023-03-06T14:19:58.103Z,10.90
2023-03-06T14:22:26.102Z,9.40
2023-03-06T14:25:02.926Z,11.00
2023-03-06T14:27:41.929Z,8.90
2023-03-06T14:30:16.426Z,9.80
2023-03-06T14:32:45.100Z,14.00
2023-03-06T14:35:39.346Z,11.30
2023-03-06T14:38:08.110Z,12.00
2023-03-06T14:40:45.758Z,9.70
2023-03-06T14:43:22.647Z,9.70
2023-03-06T14:45:52.167Z,10.90
2023-03-06T14:48:20.259Z,10.60
2023-03-06T14:50:54.843Z,10.70
2023-03-06T14:53:30.424Z,9.80
2023-03-06T14:56:06.022Z,12.40
2023-03-06T14:58:51.379Z,10.40
2023-03-06T15:01:27.147Z,12.00
2023-03-06T15:03:59.334Z,9.60
2023-03-06T15:06:38.146Z,10.40
2023-03-06T15:09:16.873Z,14.00
2023-03-06T15:11:58.493Z,12.10
2023-03-06T15:14:39.760Z,11.10
2023-03-06T15:17:28.303Z,10.50
2023-03-06T15:20:01.166Z,9.40
2023-03-06T15:22:43.312Z,11.60
2023-03-06T15:25:33.065Z,11.80
2023-03-06T15:28:26.097Z,12.00
2023-03-06T15:31:22.195Z,12.10
2023-03-06T15:34:11.261Z,13.10
2023-03-06T15:36:51.452Z,13.70
2023-03-06T15:39:37.834Z,12.50
2023-03-06T15:42:34.682Z,10.50
2023-03-06T15:45:23.867Z,12.70
2023-03-06T15:47:53.608Z,11.20
2023-03-06T15:50:22.972Z,10.60
2023-03-06T15:52:51.474Z,12.70
2023-03-06T15:55:22.561Z,13.00
2023-03-06T15:57:57.008Z,9.50
2023-03-06T16:00:28.639Z,11.20
2023-03-06T16:02:58.064Z,11.70
2023-03-06T16:05:27.519Z,24.60
2023-03-06T16:07:55.776Z,24.60
2023-03-06T16:10:27.768Z,26.60
2023-03-06T16:13:00.276Z,23.10
2023-03-06T16:15:30.597Z,18.80
2023-03-06T16:18:00.289Z,18.00
2023-03-06T16:20:29.586Z,17.10
2023-03-06T16:22:57.464Z,15.60
2023-03-06T16:25:28.193Z,15.20
2023-03-06T16:27:58.307Z,15.40
2023-03-06T16:30:29.418Z,15.00
2023-03-06T16:32:58.158Z,16.20
2023-03-06T16:35:26.727Z,14.50
2023-03-06T16:37:54.881Z,16.20
2023-03-06T16:40:22.984Z,16.50
2023-03-06T16:42:53.439Z,16.90
2023-03-06T16:45:23.662Z,18.40
2023-03-06T16:47:51.762Z,17.60
2023-03-06T16:50:28.908Z,18.40
2023-03-06T16:52:57.993Z,17.10
2023-03-06T16:55:27.334Z,18.00
2023-03-06T16:57:55.256Z,18.10
2023-03-06T17:00:31.075Z,16.80
2023-03-06T17:03:00.693Z,18.50
2023-03-06T17:05:29.588Z,18.40
2023-03-06T17:07:57.433Z,18.50
2023-03-06T17:10:27.197Z,26.10
2023-03-06T17:12:56.538Z,41.70
2023-03-06T17:15:24.429Z,37.30
2023-03-06T17:17:53.363Z,27.60
2023-03-06T17:20:21.246Z,21.20
2023-03-06T17:22:49.241Z,23.40
2023-03-06T17:25:17.396Z,21.80
2023-03-06T17:27:45.395Z,24.90
2023-03-06T17:30:13.742Z,20.60
2023-03-06T17:32:44.428Z,18.80
2023-03-06T17:35:12.330Z,24.50
2023-03-06T17:37:40.242Z,19.40
2023-03-06T17:40:10.151Z,23.10
2023-03-06T17:42:38.159Z,18.90
2023-03-06T17:45:09.248Z,22.80
2023-03-06T17:47:37.491Z,20.30
2023-03-06T17:50:05.768Z,24.80
2023-03-06T17:52:33.844Z,20.70
2023-03-06T17:55:01.867Z,18.70
2023-03-06T17:57:29.764Z,26.00
2023-03-06T17:59:57.589Z,20.20
2023-03-06T18:02:25.630Z,22.50
2023-03-06T18:04:56.475Z,25.00
2023-03-06T18:07:24.683Z,20.60
2023-03-06T18:09:52.570Z,21.40
2023-03-06T18:12:20.412Z,20.30
2023-03-06T18:14:48.715Z,19.50
2023-03-06T18:17:16.637Z,21.90
2023-03-06T18:19:44.662Z,20.40
2023-03-06T18:22:12.512Z,23.60
2023-03-06T18:24:40.404Z,24.00
2023-03-06T18:27:08.364Z,25.80
2023-03-06T18:29:36.558Z,24.30
2023-03-06T18:32:04.660Z,26.60
2023-03-06T18:34:32.545Z,23.40
2023-03-06T18:37:00.520Z,24.30
2023-03-06T18:39:28.452Z,26.30
2023-03-06T18:41:56.587Z,25.20
2023-03-06T18:44:24.425Z,24.80
2023-03-06T18:46:52.511Z,27.40
2023-03-06T18:49:20.522Z,31.00
2023-03-06T18:51:50.339Z,32.60
2023-03-06T18:54:18.353Z,38.90
2023-03-06T18:56:46.213Z,38.10
2023-03-06T18:59:18.540Z,32.60
2023-03-06T19:01:48.682Z,34.10
2023-03-06T19:04:16.562Z,34.40
2023-03-06T19:06:44.484Z,39.60
2023-03-06T19:09:12.547Z,39.90
2023-03-06T19:11:40.631Z,41.80
2023-03-06T19:14:08.852Z,36.20
2023-03-06T19:16:37.105Z,37.20
2023-03-06T19:19:05.925Z,37.90
2023-03-06T19:21:33.822Z,40.50
2023-03-06T19:24:02.219Z,35.10
2023-03-06T19:26:31.305Z,35.00
2023-03-06T19:28:59.180Z,35.30
2023-03-06T19:31:28.469Z,31.90
2023-03-06T19:33:57.560Z,29.10
2023-03-06T19:36:33.312Z,32.70
2023-03-06T19:39:03.686Z,34.40
2023-03-06T19:41:31.549Z,30.90
2023-03-06T19:44:02.436Z,32.10
2023-03-06T19:46:31.745Z,34.70
2023-03-06T19:49:02.046Z,35.80
2023-03-06T19:51:30.128Z,35.10
2023-03-06T19:53:58.920Z,37.90
2023-03-06T19:56:29.078Z,33.40
2023-03-06T19:58:57.670Z,42.00
2023-03-06T20:01:27.461Z,41.40
2023-03-06T20:04:00.127Z,35.60
2023-03-06T20:06:31.455Z,38.90
2023-03-06T20:09:01.221Z,38.80
2023-03-06T20:11:32.577Z,39.10
2023-03-06T20:14:03.118Z,40.60
2023-03-06T20:16:32.077Z,98.30
2023-03-06T20:19:01.459Z,132.70
2023-03-06T20:21:32.181Z,155.00
2023-03-06T20:24:00.076Z,67.60
2023-03-06T20:26:29.282Z,92.40
2023-03-06T20:28:57.775Z,57.60
2023-03-06T20:31:28.240Z,56.40
2023-03-06T20:33:58.487Z,47.50
2023-03-06T20:36:32.128Z,48.30
2023-03-06T20:39:01.901Z,36.90
2023-03-06T20:41:31.219Z,51.40
2023-03-06T20:44:01.292Z,53.40
2023-03-06T20:46:30.111Z,62.00
2023-03-06T20:49:01.014Z,91.90
2023-03-06T20:51:36.125Z,154.10
2023-03-06T20:54:05.175Z,211.60
2023-03-06T20:56:35.103Z,85.60
2023-03-06T20:59:03.407Z,74.90
2023-03-06T21:01:34.138Z,46.50
2023-03-06T21:04:04.590Z,44.80
2023-03-06T21:06:33.322Z,42.40
2023-03-06T21:09:01.917Z,45.90
2023-03-06T21:11:29.920Z,52.70
2023-03-06T21:13:58.107Z,51.50
2023-03-06T21:16:27.790Z,58.90
2023-03-06T21:18:56.901Z,52.40
2023-03-06T21:21:31.472Z,44.70
2023-03-06T21:23:59.696Z,50.40
2023-03-06T21:26:29.858Z,42.00
2023-03-06T21:29:01.064Z,40.60
2023-03-06T21:31:29.745Z,40.40
2023-03-06T21:33:58.874Z,40.80
2023-03-06T21:36:27.001Z,40.00
2023-03-06T21:38:55.323Z,37.10
2023-03-06T21:41:25.959Z,43.00
2023-03-06T21:43:58.419Z,38.20
2023-03-06T21:46:27.830Z,39.40
2023-03-06T21:48:56.408Z,41.20
2023-03-06T21:51:25.653Z,38.80
2023-03-06T21:53:54.470Z,38.80
2023-03-06T21:56:25.383Z,42.60
2023-03-06T21:58:53.404Z,43.00
2023-03-06T22:01:24.538Z,44.90
2023-03-06T22:03:53.175Z,41.50
2023-03-06T22:06:25.187Z,41.10
2023-03-06T22:08:55.105Z,40.30
2023-03-06T22:11:29.784Z,37.80
2023-03-06T22:13:58.141Z,39.60
2023-03-06T22:16:26.168Z,38.10
2023-03-06T22:18:54.123Z,35.30
2023-03-06T22:21:23.225Z,36.70
2023-03-06T22:23:52.941Z,34.20
2023-03-06T22:26:21.073Z,36.90
2023-03-06T22:28:49.446Z,35.30
2023-03-06T22:31:20.403Z,34.40
2023-03-06T22:33:53.818Z,40.80
2023-03-06T22:36:22.784Z,39.60
2023-03-06T22:38:55.155Z,32.80
2023-03-06T22:41:23.234Z,37.40
2023-03-06T22:43:51.209Z,37.10
2023-03-06T22:46:19.263Z,33.10
2023-03-06T22:48:47.228Z,34.40
2023-03-06T22:51:17.873Z,35.30
2023-03-06T22:53:46.784Z,36.00
2023-03-06T22:56:18.082Z,32.50
2023-03-06T22:58:46.900Z,31.80
2023-03-06T23:01:20.284Z,28.40
2023-03-06T23:03:50.504Z,32.80
2023-03-06T23:06:33.203Z,36.60
2023-03-06T23:09:13.016Z,36.20
2023-03-06T23:11:40.898Z,34.50
2023-03-06T23:14:12.548Z,31.40
2023-03-06T23:16:40.524Z,28.90
2023-03-06T23:19:08.538Z,35.20
2023-03-06T23:21:36.479Z,32.40
2023-03-06T23:24:04.761Z,29.70
2023-03-06T23:26:34.349Z,25.60
2023-03-06T23:29:02.231Z,21.90
2023-03-06T23:31:31.209Z,28.90
2023-03-06T23:34:01.339Z,25.80
2023-03-06T23:36:30.261Z,23.80
2023-03-06T23:38:58.608Z,30.10
2023-03-06T23:41:26.624Z,18.10
2023-03-06T23:43:55.387Z,16.00
2023-03-06T23:46:23.805Z,13.70
2023-03-06T23:48:52.129Z,13.90
2023-03-06T23:51:22.591Z,19.20
2023-03-06T23:53:59.017Z,12.80
2023-03-06T23:56:28.577Z,16.30
2023-03-06T23:58:56.830Z,15.10
